Ocosta, Washington
Current Conditions -  °F | °C
As of 7:53 AM on Thursday 30 Oct 2014 (Local Time) from KHQM Reporting Station
Light Rain Light Rain  
Wind Chill: 54°   Ceiling: 4100
Heat Index: 54°   Visibility: 4mi
Dew Point: 53°   Wind: 13mph
Humidity: 97%   Direction: 60°ENE
Pressure: 29.82"   Gusts: NA
Location:  47.1445°N, 123.771°W
Report Text: KHQM 301453Z AUTO 06011KT 4SM -RA BR OVC041 12/12 A2982 RMK AO2 SLP101 P0006 60014 T01220117 56017
Loading
Personal Weather Stations






























Interactive Weather Map
Tropical Storm Tracking
New forecast layout! Learn more

10-Day Weather Forecast

Advertisements
Track Severe Weather on mobile